Antler, North Dakota
Current Conditions -  °F | °C
As of 9:58 PM on Saturday 22 Nov 2014 (Local Time) from KMIB Reporting Station
Clear Clear  
Wind Chill: 28°   Ceiling: Unl
Heat Index: 36°   Visibility: 10mi
Dew Point: 30°   Wind: 10mph
Humidity: 80%   Direction: 230°SW
Pressure: 29.26"   Gusts: NA
Location:  48.97°N, 101.28°W
Report Text: KMIB 230358Z AUTO 23009KT 10SM CLR 02/M01 A2926 RMK AO2 SLP929 T00201011
Loading
Personal Weather Stations






























Interactive Weather Map New forecast layout! Learn more

10-Day Weather Forecast

Advertisements
Track Severe Weather on mobile